sensor_id;sensor_type;location;lat;lon;timestamp;P1;durP1;ratioP1;P2;durP2;ratioP2
5416;SDS011;2731;50.754;12.990;2023-10-08T00:01:08;7.57;;;3.53;;
5416;SDS011;2731;50.754;12.990;2023-10-08T00:06:48;7.82;;;3.22;;
5416;SDS011;2731;50.754;12.990;2023-10-08T00:09:54;6.60;;;3.97;;
5416;SDS011;2731;50.754;12.990;2023-10-08T00:12:40;8.20;;;3.97;;
5416;SDS011;2731;50.754;12.990;2023-10-08T00:15:27;9.30;;;3.97;;
5416;SDS011;2731;50.754;12.990;2023-10-08T00:18:13;9.77;;;4.35;;
5416;SDS011;2731;50.754;12.990;2023-10-08T00:21:00;10.43;;;4.28;;
5416;SDS011;2731;50.754;12.990;2023-10-08T00:23:58;9.80;;;3.53;;
5416;SDS011;2731;50.754;12.990;2023-10-08T00:26:44;7.40;;;3.38;;
5416;SDS011;2731;50.754;12.990;2023-10-08T00:29:29;6.03;;;3.33;;
5416;SDS011;2731;50.754;12.990;2023-10-08T00:32:16;6.95;;;3.35;;
5416;SDS011;2731;50.754;12.990;2023-10-08T00:35:03;8.80;;;4.20;;
5416;SDS011;2731;50.754;12.990;2023-10-08T00:37:49;17.90;;;4.72;;
5416;SDS011;2731;50.754;12.990;2023-10-08T00:40:41;7.30;;;4.30;;
5416;SDS011;2731;50.754;12.990;2023-10-08T00:43:32;8.35;;;3.50;;
5416;SDS011;2731;50.754;12.990;2023-10-08T00:46:19;7.05;;;3.53;;
5416;SDS011;2731;50.754;12.990;2023-10-08T00:49:29;13.02;;;4.30;;
5416;SDS011;2731;50.754;12.990;2023-10-08T00:52:30;7.90;;;3.88;;
5416;SDS011;2731;50.754;12.990;2023-10-08T00:58:13;10.90;;;4.15;;
5416;SDS011;2731;50.754;12.990;2023-10-08T01:01:10;12.57;;;5.13;;
5416;SDS011;2731;50.754;12.990;2023-10-08T01:03:57;6.40;;;3.72;;
5416;SDS011;2731;50.754;12.990;2023-10-08T01:06:43;7.55;;;3.67;;
5416;SDS011;2731;50.754;12.990;2023-10-08T01:09:33;13.25;;;3.90;;
5416;SDS011;2731;50.754;12.990;2023-10-08T01:12:23;10.25;;;3.70;;
5416;SDS011;2731;50.754;12.990;2023-10-08T01:15:31;11.70;;;4.65;;
5416;SDS011;2731;50.754;12.990;2023-10-08T01:18:20;8.48;;;3.90;;
5416;SDS011;2731;50.754;12.990;2023-10-08T01:21:17;12.02;;;5.15;;
5416;SDS011;2731;50.754;12.990;2023-10-08T01:24:17;11.80;;;3.85;;
5416;SDS011;2731;50.754;12.990;2023-10-08T01:27:08;6.40;;;3.15;;
5416;SDS011;2731;50.754;12.990;2023-10-08T01:30:03;9.07;;;4.00;;
5416;SDS011;2731;50.754;12.990;2023-10-08T01:33:05;10.43;;;4.50;;
5416;SDS011;2731;50.754;12.990;2023-10-08T01:35:55;9.00;;;4.03;;
5416;SDS011;2731;50.754;12.990;2023-10-08T01:38:49;11.73;;;3.75;;
5416;SDS011;2731;50.754;12.990;2023-10-08T01:41:34;7.40;;;3.38;;
5416;SDS011;2731;50.754;12.990;2023-10-08T01:44:25;7.03;;;4.00;;
5416;SDS011;2731;50.754;12.990;2023-10-08T01:46:52;7.15;;;3.10;;
5416;SDS011;2731;50.754;12.990;2023-10-08T01:49:43;9.73;;;4.10;;
5416;SDS011;2731;50.754;12.990;2023-10-08T01:52:30;11.63;;;5.13;;
5416;SDS011;2731;50.754;12.990;2023-10-08T01:55:14;10.13;;;5.45;;
5416;SDS011;2731;50.754;12.990;2023-10-08T01:58:04;16.10;;;5.85;;
5416;SDS011;2731;50.754;12.990;2023-10-08T02:00:50;9.73;;;4.95;;
5416;SDS011;2731;50.754;12.990;2023-10-08T02:03:38;10.73;;;5.30;;
5416;SDS011;2731;50.754;12.990;2023-10-08T02:06:22;11.57;;;5.28;;
5416;SDS011;2731;50.754;12.990;2023-10-08T02:09:07;11.07;;;5.18;;
5416;SDS011;2731;50.754;12.990;2023-10-08T02:11:55;10.68;;;4.88;;
5416;SDS011;2731;50.754;12.990;2023-10-08T02:14:44;17.20;;;5.35;;
5416;SDS011;2731;50.754;12.990;2023-10-08T02:17:30;12.45;;;5.55;;
5416;SDS011;2731;50.754;12.990;2023-10-08T02:20:16;12.95;;;6.03;;
5416;SDS011;2731;50.754;12.990;2023-10-08T02:23:07;13.25;;;5.57;;
5416;SDS011;2731;50.754;12.990;2023-10-08T02:25:56;9.68;;;5.05;;
5416;SDS011;2731;50.754;12.990;2023-10-08T02:28:43;9.15;;;5.07;;
5416;SDS011;2731;50.754;12.990;2023-10-08T02:31:29;10.02;;;5.25;;
5416;SDS011;2731;50.754;12.990;2023-10-08T02:34:18;14.73;;;5.88;;
5416;SDS011;2731;50.754;12.990;2023-10-08T02:37:05;10.57;;;4.57;;
5416;SDS011;2731;50.754;12.990;2023-10-08T02:39:50;12.48;;;5.65;;
5416;SDS011;2731;50.754;12.990;2023-10-08T02:42:36;14.75;;;5.97;;
5416;SDS011;2731;50.754;12.990;2023-10-08T02:45:21;15.15;;;4.93;;
5416;SDS011;2731;50.754;12.990;2023-10-08T02:48:10;10.45;;;5.28;;
5416;SDS011;2731;50.754;12.990;2023-10-08T02:50:56;11.52;;;5.35;;
5416;SDS011;2731;50.754;12.990;2023-10-08T02:53:52;13.15;;;5.47;;
5416;SDS011;2731;50.754;12.990;2023-10-08T02:56:20;10.20;;;5.85;;
5416;SDS011;2731;50.754;12.990;2023-10-08T02:59:10;10.73;;;5.97;;
5416;SDS011;2731;50.754;12.990;2023-10-08T03:01:57;9.70;;;5.13;;
5416;SDS011;2731;50.754;12.990;2023-10-08T03:04:44;9.73;;;5.53;;
5416;SDS011;2731;50.754;12.990;2023-10-08T03:07:31;9.82;;;4.95;;
5416;SDS011;2731;50.754;12.990;2023-10-08T03:10:32;10.02;;;5.60;;
5416;SDS011;2731;50.754;12.990;2023-10-08T03:13:19;12.80;;;5.95;;
5416;SDS011;2731;50.754;12.990;2023-10-08T03:16:04;12.75;;;6.30;;
5416;SDS011;2731;50.754;12.990;2023-10-08T03:18:54;14.70;;;5.40;;
5416;SDS011;2731;50.754;12.990;2023-10-08T03:21:42;12.25;;;5.07;;
5416;SDS011;2731;50.754;12.990;2023-10-08T03:24:32;14.10;;;6.60;;
5416;SDS011;2731;50.754;12.990;2023-10-08T03:27:20;14.10;;;5.82;;
5416;SDS011;2731;50.754;12.990;2023-10-08T03:30:10;13.13;;;5.70;;
5416;SDS011;2731;50.754;12.990;2023-10-08T03:32:45;15.50;;;5.85;;
5416;SDS011;2731;50.754;12.990;2023-10-08T03:35:41;12.82;;;5.10;;
5416;SDS011;2731;50.754;12.990;2023-10-08T03:38:32;10.13;;;4.90;;
5416;SDS011;2731;50.754;12.990;2023-10-08T03:41:49;10.93;;;3.53;;
5416;SDS011;2731;50.754;12.990;2023-10-08T03:44:51;3.83;;;2.42;;
5416;SDS011;2731;50.754;12.990;2023-10-08T03:47:41;2.83;;;1.98;;
5416;SDS011;2731;50.754;12.990;2023-10-08T03:50:30;1.38;;;0.95;;
5416;SDS011;2731;50.754;12.990;2023-10-08T03:53:40;0.43;;;0.30;;
5416;SDS011;2731;50.754;12.990;2023-10-08T03:56:46;0.22;;;0.22;;
5416;SDS011;2731;50.754;12.990;2023-10-08T03:59:34;0.22;;;0.22;;
5416;SDS011;2731;50.754;12.990;2023-10-08T04:02:28;0.20;;;0.20;;
5416;SDS011;2731;50.754;12.990;2023-10-08T04:05:31;0.30;;;0.20;;
5416;SDS011;2731;50.754;12.990;2023-10-08T04:08:16;0.60;;;0.55;;
5416;SDS011;2731;50.754;12.990;2023-10-08T04:11:24;0.68;;;0.50;;
5416;SDS011;2731;50.754;12.990;2023-10-08T04:14:19;0.20;;;0.20;;
5416;SDS011;2731;50.754;12.990;2023-10-08T04:17:05;0.10;;;0.10;;
5416;SDS011;2731;50.754;12.990;2023-10-08T04:19:55;0.30;;;0.20;;
5416;SDS011;2731;50.754;12.990;2023-10-08T04:22:43;0.20;;;0.20;;
5416;SDS011;2731;50.754;12.990;2023-10-08T04:25:31;0.10;;;0.10;;
5416;SDS011;2731;50.754;12.990;2023-10-08T04:27:58;0.20;;;0.20;;
5416;SDS011;2731;50.754;12.990;2023-10-08T04:30:45;0.10;;;0.10;;
5416;SDS011;2731;50.754;12.990;2023-10-08T04:33:31;0.20;;;0.10;;
5416;SDS011;2731;50.754;12.990;2023-10-08T04:36:18;1.17;;;0.20;;
5416;SDS011;2731;50.754;12.990;2023-10-08T04:39:05;0.10;;;0.10;;
5416;SDS011;2731;50.754;12.990;2023-10-08T04:42:01;0.10;;;0.10;;
5416;SDS011;2731;50.754;12.990;2023-10-08T04:44:40;1.10;;;0.30;;
5416;SDS011;2731;50.754;12.990;2023-10-08T04:47:25;0.43;;;0.40;;
5416;SDS011;2731;50.754;12.990;2023-10-08T04:50:17;0.20;;;0.20;;
5416;SDS011;2731;50.754;12.990;2023-10-08T04:53:05;0.40;;;0.40;;
5416;SDS011;2731;50.754;12.990;2023-10-08T04:55:53;0.90;;;0.80;;
5416;SDS011;2731;50.754;12.990;2023-10-08T04:58:43;0.70;;;0.70;;
5416;SDS011;2731;50.754;12.990;2023-10-08T05:01:35;0.40;;;0.40;;
5416;SDS011;2731;50.754;12.990;2023-10-08T05:04:53;0.25;;;0.25;;
5416;SDS011;2731;50.754;12.990;2023-10-08T05:07:57;0.90;;;0.45;;
5416;SDS011;2731;50.754;12.990;2023-10-08T05:10:52;0.40;;;0.40;;
5416;SDS011;2731;50.754;12.990;2023-10-08T05:14:01;0.50;;;0.50;;
5416;SDS011;2731;50.754;12.990;2023-10-08T05:16:50;0.55;;;0.52;;
5416;SDS011;2731;50.754;12.990;2023-10-08T05:19:53;0.60;;;0.30;;
5416;SDS011;2731;50.754;12.990;2023-10-08T05:22:58;0.20;;;0.20;;
5416;SDS011;2731;50.754;12.990;2023-10-08T05:26:03;0.50;;;0.50;;
5416;SDS011;2731;50.754;12.990;2023-10-08T05:29:15;1.42;;;0.38;;
5416;SDS011;2731;50.754;12.990;2023-10-08T05:32:23;0.43;;;0.40;;
5416;SDS011;2731;50.754;12.990;2023-10-08T05:35:26;0.10;;;0.10;;
5416;SDS011;2731;50.754;12.990;2023-10-08T05:38:16;0.20;;;0.20;;
5416;SDS011;2731;50.754;12.990;2023-10-08T05:41:28;0.00;;;0.00;;
5416;SDS011;2731;50.754;12.990;2023-10-08T05:44:35;0.20;;;0.00;;
5416;SDS011;2731;50.754;12.990;2023-10-08T05:47:29;1.15;;;0.30;;
5416;SDS011;2731;50.754;12.990;2023-10-08T05:50:17;0.03;;;0.03;;
5416;SDS011;2731;50.754;12.990;2023-10-08T05:52:47;0.00;;;0.00;;
5416;SDS011;2731;50.754;12.990;2023-10-08T05:55:46;0.00;;;0.00;;
5416;SDS011;2731;50.754;12.990;2023-10-08T05:58:46;0.00;;;0.00;;
5416;SDS011;2731;50.754;12.990;2023-10-08T06:01:43;0.10;;;0.00;;
5416;SDS011;2731;50.754;12.990;2023-10-08T06:04:31;0.00;;;0.00;;
5416;SDS011;2731;50.754;12.990;2023-10-08T06:07:53;0.10;;;0.00;;
5416;SDS011;2731;50.754;12.990;2023-10-08T06:10:39;0.32;;;0.10;;
5416;SDS011;2731;50.754;12.990;2023-10-08T06:13:23;0.75;;;0.40;;
5416;SDS011;2731;50.754;12.990;2023-10-08T06:16:36;0.90;;;0.10;;
5416;SDS011;2731;50.754;12.990;2023-10-08T06:19:10;0.00;;;0.00;;
5416;SDS011;2731;50.754;12.990;2023-10-08T06:21:59;1.35;;;0.10;;
5416;SDS011;2731;50.754;12.990;2023-10-08T06:24:49;0.00;;;0.00;;
5416;SDS011;2731;50.754;12.990;2023-10-08T06:27:55;0.10;;;0.10;;
5416;SDS011;2731;50.754;12.990;2023-10-08T06:30:42;0.05;;;0.00;;
5416;SDS011;2731;50.754;12.990;2023-10-08T06:33:29;1.05;;;0.20;;
5416;SDS011;2731;50.754;12.990;2023-10-08T06:35:57;4.00;;;0.25;;
5416;SDS011;2731;50.754;12.990;2023-10-08T06:39:02;0.10;;;0.10;;
5416;SDS011;2731;50.754;12.990;2023-10-08T06:41:47;0.10;;;0.00;;
5416;SDS011;2731;50.754;12.990;2023-10-08T06:44:45;0.10;;;0.10;;
5416;SDS011;2731;50.754;12.990;2023-10-08T06:47:33;0.00;;;0.00;;
5416;SDS011;2731;50.754;12.990;2023-10-08T06:50:19;0.20;;;0.05;;
5416;SDS011;2731;50.754;12.990;2023-10-08T06:52:46;0.10;;;0.08;;
5416;SDS011;2731;50.754;12.990;2023-10-08T06:55:33;0.00;;;0.00;;
5416;SDS011;2731;50.754;12.990;2023-10-08T06:58:25;0.25;;;0.10;;
5416;SDS011;2731;50.754;12.990;2023-10-08T07:01:10;0.13;;;0.10;;
5416;SDS011;2731;50.754;12.990;2023-10-08T07:04:06;1.55;;;0.10;;
5416;SDS011;2731;50.754;12.990;2023-10-08T07:06:56;0.90;;;0.10;;
5416;SDS011;2731;50.754;12.990;2023-10-08T07:09:43;0.95;;;0.00;;
5416;SDS011;2731;50.754;12.990;2023-10-08T07:12:28;0.20;;;0.20;;
5416;SDS011;2731;50.754;12.990;2023-10-08T07:15:19;0.00;;;0.00;;
5416;SDS011;2731;50.754;12.990;2023-10-08T07:18:07;0.95;;;0.22;;
5416;SDS011;2731;50.754;12.990;2023-10-08T07:21:04;0.68;;;0.40;;
5416;SDS011;2731;50.754;12.990;2023-10-08T07:23:58;0.10;;;0.10;;
5416;SDS011;2731;50.754;12.990;2023-10-08T07:26:44;0.30;;;0.10;;
5416;SDS011;2731;50.754;12.990;2023-10-08T07:29:33;0.10;;;0.10;;
5416;SDS011;2731;50.754;12.990;2023-10-08T07:32:19;1.08;;;0.30;;
5416;SDS011;2731;50.754;12.990;2023-10-08T07:35:06;0.00;;;0.00;;
5416;SDS011;2731;50.754;12.990;2023-10-08T07:38:20;0.10;;;0.10;;
5416;SDS011;2731;50.754;12.990;2023-10-08T07:41:08;0.28;;;0.20;;
5416;SDS011;2731;50.754;12.990;2023-10-08T07:43:38;0.30;;;0.20;;
5416;SDS011;2731;50.754;12.990;2023-10-08T07:46:05;0.10;;;0.10;;
5416;SDS011;2731;50.754;12.990;2023-10-08T07:48:35;0.52;;;0.30;;
5416;SDS011;2731;50.754;12.990;2023-10-08T07:51:01;0.20;;;0.20;;
5416;SDS011;2731;50.754;12.990;2023-10-08T07:53:29;1.48;;;0.10;;
5416;SDS011;2731;50.754;12.990;2023-10-08T07:56:04;0.35;;;0.10;;
5416;SDS011;2731;50.754;12.990;2023-10-08T07:58:34;0.10;;;0.10;;
5416;SDS011;2731;50.754;12.990;2023-10-08T08:01:04;0.47;;;0.10;;
5416;SDS011;2731;50.754;12.990;2023-10-08T08:03:35;0.10;;;0.10;;
5416;SDS011;2731;50.754;12.990;2023-10-08T08:06:07;0.10;;;0.10;;
5416;SDS011;2731;50.754;12.990;2023-10-08T08:08:38;0.10;;;0.10;;
5416;SDS011;2731;50.754;12.990;2023-10-08T08:11:07;0.73;;;0.28;;
5416;SDS011;2731;50.754;12.990;2023-10-08T08:13:46;0.35;;;0.30;;
5416;SDS011;2731;50.754;12.990;2023-10-08T08:16:25;1.20;;;0.30;;
5416;SDS011;2731;50.754;12.990;2023-10-08T08:18:55;1.75;;;0.85;;
5416;SDS011;2731;50.754;12.990;2023-10-08T08:21:26;1.60;;;0.80;;
5416;SDS011;2731;50.754;12.990;2023-10-08T08:23:57;3.20;;;0.93;;
5416;SDS011;2731;50.754;12.990;2023-10-08T08:26:31;2.95;;;1.15;;
5416;SDS011;2731;50.754;12.990;2023-10-08T08:29:05;5.22;;;0.85;;
5416;SDS011;2731;50.754;12.990;2023-10-08T08:31:35;2.17;;;1.02;;
5416;SDS011;2731;50.754;12.990;2023-10-08T08:34:06;2.67;;;1.23;;
5416;SDS011;2731;50.754;12.990;2023-10-08T08:36:53;2.85;;;1.02;;
5416;SDS011;2731;50.754;12.990;2023-10-08T08:39:19;5.65;;;1.13;;
5416;SDS011;2731;50.754;12.990;2023-10-08T08:42:18;3.42;;;1.27;;
5416;SDS011;2731;50.754;12.990;2023-10-08T08:44:58;2.95;;;1.00;;
5416;SDS011;2731;50.754;12.990;2023-10-08T08:47:27;2.28;;;1.00;;
5416;SDS011;2731;50.754;12.990;2023-10-08T08:50:08;3.35;;;1.00;;
5416;SDS011;2731;50.754;12.990;2023-10-08T08:52:40;2.60;;;1.30;;
5416;SDS011;2731;50.754;12.990;2023-10-08T08:55:13;4.47;;;1.10;;
5416;SDS011;2731;50.754;12.990;2023-10-08T08:57:42;4.35;;;0.98;;
5416;SDS011;2731;50.754;12.990;2023-10-08T09:00:14;4.80;;;1.48;;
5416;SDS011;2731;50.754;12.990;2023-10-08T09:02:46;5.00;;;1.00;;
5416;SDS011;2731;50.754;12.990;2023-10-08T09:05:15;4.15;;;0.75;;
5416;SDS011;2731;50.754;12.990;2023-10-08T09:08:04;2.80;;;1.30;;
5416;SDS011;2731;50.754;12.990;2023-10-08T09:10:35;1.65;;;1.00;;
5416;SDS011;2731;50.754;12.990;2023-10-08T09:13:25;5.05;;;1.10;;
5416;SDS011;2731;50.754;12.990;2023-10-08T09:15:57;1.90;;;0.88;;
5416;SDS011;2731;50.754;12.990;2023-10-08T09:18:32;1.80;;;0.85;;
5416;SDS011;2731;50.754;12.990;2023-10-08T09:21:15;1.77;;;1.33;;
5416;SDS011;2731;50.754;12.990;2023-10-08T09:23:51;2.08;;;0.75;;
5416;SDS011;2731;50.754;12.990;2023-10-08T09:26:23;3.05;;;1.02;;
5416;SDS011;2731;50.754;12.990;2023-10-08T09:28:50;2.67;;;0.80;;
5416;SDS011;2731;50.754;12.990;2023-10-08T09:31:23;3.25;;;0.70;;
5416;SDS011;2731;50.754;12.990;2023-10-08T09:34:04;2.90;;;1.20;;
5416;SDS011;2731;50.754;12.990;2023-10-08T09:36:36;3.03;;;1.20;;
5416;SDS011;2731;50.754;12.990;2023-10-08T09:39:10;2.38;;;1.15;;
5416;SDS011;2731;50.754;12.990;2023-10-08T09:41:58;3.33;;;0.98;;
5416;SDS011;2731;50.754;12.990;2023-10-08T09:44:25;3.15;;;1.00;;
5416;SDS011;2731;50.754;12.990;2023-10-08T09:49:36;1.55;;;1.08;;
5416;SDS011;2731;50.754;12.990;2023-10-08T09:52:13;1.83;;;0.93;;
5416;SDS011;2731;50.754;12.990;2023-10-08T09:54:48;1.98;;;1.25;;
5416;SDS011;2731;50.754;12.990;2023-10-08T09:57:20;1.83;;;0.70;;
5416;SDS011;2731;50.754;12.990;2023-10-08T09:59:53;2.15;;;1.00;;
5416;SDS011;2731;50.754;12.990;2023-10-08T10:02:23;2.63;;;1.08;;
5416;SDS011;2731;50.754;12.990;2023-10-08T10:04:56;2.35;;;0.90;;
5416;SDS011;2731;50.754;12.990;2023-10-08T10:07:27;2.72;;;1.00;;
5416;SDS011;2731;50.754;12.990;2023-10-08T10:09:55;3.22;;;1.33;;
5416;SDS011;2731;50.754;12.990;2023-10-08T10:12:47;1.92;;;0.90;;
5416;SDS011;2731;50.754;12.990;2023-10-08T10:15:32;2.42;;;1.05;;
5416;SDS011;2731;50.754;12.990;2023-10-08T10:18:15;2.17;;;1.33;;
5416;SDS011;2731;50.754;12.990;2023-10-08T10:21:39;1.90;;;0.93;;
5416;SDS011;2731;50.754;12.990;2023-10-08T10:23:44;4.38;;;1.70;;
5416;SDS011;2731;50.754;12.990;2023-10-08T10:26:29;1.60;;;0.82;;
5416;SDS011;2731;50.754;12.990;2023-10-08T10:31:35;3.53;;;1.02;;
5416;SDS011;2731;50.754;12.990;2023-10-08T10:34:13;2.10;;;0.90;;
5416;SDS011;2731;50.754;12.990;2023-10-08T10:36:43;4.72;;;1.63;;
5416;SDS011;2731;50.754;12.990;2023-10-08T10:39:14;3.20;;;1.40;;
5416;SDS011;2731;50.754;12.990;2023-10-08T10:41:48;3.45;;;1.63;;
5416;SDS011;2731;50.754;12.990;2023-10-08T10:44:27;2.15;;;1.52;;
5416;SDS011;2731;50.754;12.990;2023-10-08T10:49:45;5.43;;;1.33;;
5416;SDS011;2731;50.754;12.990;2023-10-08T10:52:26;3.13;;;1.40;;
5416;SDS011;2731;50.754;12.990;2023-10-08T10:55:13;3.72;;;1.15;;
5416;SDS011;2731;50.754;12.990;2023-10-08T10:57:53;3.60;;;1.58;;
5416;SDS011;2731;50.754;12.990;2023-10-08T11:00:38;3.75;;;1.30;;
5416;SDS011;2731;50.754;12.990;2023-10-08T11:03:07;4.13;;;1.83;;
5416;SDS011;2731;50.754;12.990;2023-10-08T11:05:57;6.85;;;2.83;;
5416;SDS011;2731;50.754;12.990;2023-10-08T11:08:50;4.57;;;1.30;;
5416;SDS011;2731;50.754;12.990;2023-10-08T11:11:19;2.17;;;1.10;;
5416;SDS011;2731;50.754;12.990;2023-10-08T11:13:59;7.40;;;2.05;;
5416;SDS011;2731;50.754;12.990;2023-10-08T11:16:26;5.85;;;2.00;;
5416;SDS011;2731;50.754;12.990;2023-10-08T11:18:58;6.75;;;2.35;;
5416;SDS011;2731;50.754;12.990;2023-10-08T11:21:31;5.38;;;2.33;;
5416;SDS011;2731;50.754;12.990;2023-10-08T11:24:02;4.93;;;1.90;;
5416;SDS011;2731;50.754;12.990;2023-10-08T11:26:51;6.25;;;2.17;;
5416;SDS011;2731;50.754;12.990;2023-10-08T11:29:36;5.28;;;1.80;;
5416;SDS011;2731;50.754;12.990;2023-10-08T11:32:04;4.47;;;2.65;;
5416;SDS011;2731;50.754;12.990;2023-10-08T11:34:39;4.25;;;2.05;;
5416;SDS011;2731;50.754;12.990;2023-10-08T11:37:06;5.47;;;2.63;;
5416;SDS011;2731;50.754;12.990;2023-10-08T11:39:48;6.30;;;2.88;;
5416;SDS011;2731;50.754;12.990;2023-10-08T11:42:21;5.43;;;2.60;;
5416;SDS011;2731;50.754;12.990;2023-10-08T11:45:16;7.40;;;2.65;;
5416;SDS011;2731;50.754;12.990;2023-10-08T11:48:08;6.13;;;2.97;;
5416;SDS011;2731;50.754;12.990;2023-10-08T11:50:44;7.00;;;3.13;;
5416;SDS011;2731;50.754;12.990;2023-10-08T11:53:14;6.45;;;2.65;;
5416;SDS011;2731;50.754;12.990;2023-10-08T11:55:44;4.53;;;2.67;;
5416;SDS011;2731;50.754;12.990;2023-10-08T11:58:13;8.10;;;3.67;;
5416;SDS011;2731;50.754;12.990;2023-10-08T12:00:45;9.65;;;2.67;;
5416;SDS011;2731;50.754;12.990;2023-10-08T12:03:16;3.72;;;2.35;;
5416;SDS011;2731;50.754;12.990;2023-10-08T12:05:52;4.07;;;1.80;;
5416;SDS011;2731;50.754;12.990;2023-10-08T12:08:25;5.50;;;1.88;;
5416;SDS011;2731;50.754;12.990;2023-10-08T12:11:01;5.28;;;1.67;;
5416;SDS011;2731;50.754;12.990;2023-10-08T12:13:30;4.10;;;1.88;;
5416;SDS011;2731;50.754;12.990;2023-10-08T12:15:59;4.30;;;1.27;;
5416;SDS011;2731;50.754;12.990;2023-10-08T12:18:38;4.75;;;1.42;;
5416;SDS011;2731;50.754;12.990;2023-10-08T12:21:09;6.57;;;1.58;;
5416;SDS011;2731;50.754;12.990;2023-10-08T12:23:40;3.05;;;1.52;;
5416;SDS011;2731;50.754;12.990;2023-10-08T12:26:11;4.55;;;1.23;;
5416;SDS011;2731;50.754;12.990;2023-10-08T12:28:48;4.15;;;1.58;;
5416;SDS011;2731;50.754;12.990;2023-10-08T12:31:17;3.22;;;1.40;;
5416;SDS011;2731;50.754;12.990;2023-10-08T12:33:52;5.22;;;1.50;;
5416;SDS011;2731;50.754;12.990;2023-10-08T12:36:46;2.75;;;1.50;;
5416;SDS011;2731;50.754;12.990;2023-10-08T12:39:13;5.03;;;1.42;;
5416;SDS011;2731;50.754;12.990;2023-10-08T12:41:43;4.03;;;1.70;;
5416;SDS011;2731;50.754;12.990;2023-10-08T12:44:11;3.75;;;1.60;;
5416;SDS011;2731;50.754;12.990;2023-10-08T12:46:44;4.18;;;1.55;;
5416;SDS011;2731;50.754;12.990;2023-10-08T12:49:23;4.95;;;1.83;;
5416;SDS011;2731;50.754;12.990;2023-10-08T12:51:57;5.75;;;1.60;;
5416;SDS011;2731;50.754;12.990;2023-10-08T12:54:28;4.85;;;1.35;;
5416;SDS011;2731;50.754;12.990;2023-10-08T12:57:01;3.87;;;1.50;;
5416;SDS011;2731;50.754;12.990;2023-10-08T12:59:52;4.13;;;2.13;;
5416;SDS011;2731;50.754;12.990;2023-10-08T13:02:26;6.22;;;1.88;;
5416;SDS011;2731;50.754;12.990;2023-10-08T13:05:06;5.95;;;1.63;;
5416;SDS011;2731;50.754;12.990;2023-10-08T13:07:43;5.25;;;1.30;;
5416;SDS011;2731;50.754;12.990;2023-10-08T13:10:15;6.60;;;1.65;;
5416;SDS011;2731;50.754;12.990;2023-10-08T13:12:42;4.70;;;1.50;;
5416;SDS011;2731;50.754;12.990;2023-10-08T13:15:11;3.80;;;1.75;;
5416;SDS011;2731;50.754;12.990;2023-10-08T13:17:38;6.22;;;2.15;;
5416;SDS011;2731;50.754;12.990;2023-10-08T13:20:10;7.72;;;1.90;;
5416;SDS011;2731;50.754;12.990;2023-10-08T13:22:40;3.47;;;1.63;;
5416;SDS011;2731;50.754;12.990;2023-10-08T13:25:17;4.03;;;1.67;;
5416;SDS011;2731;50.754;12.990;2023-10-08T13:27:50;3.33;;;1.50;;
5416;SDS011;2731;50.754;12.990;2023-10-08T13:30:18;3.53;;;1.70;;
5416;SDS011;2731;50.754;12.990;2023-10-08T13:32:47;5.78;;;1.50;;
5416;SDS011;2731;50.754;12.990;2023-10-08T13:35:16;5.40;;;2.20;;
5416;SDS011;2731;50.754;12.990;2023-10-08T13:37:44;4.32;;;1.60;;
5416;SDS011;2731;50.754;12.990;2023-10-08T13:40:14;3.55;;;2.03;;
5416;SDS011;2731;50.754;12.990;2023-10-08T13:42:44;6.30;;;2.38;;
5416;SDS011;2731;50.754;12.990;2023-10-08T13:45:22;3.10;;;1.38;;
5416;SDS011;2731;50.754;12.990;2023-10-08T13:47:51;7.15;;;1.63;;
5416;SDS011;2731;50.754;12.990;2023-10-08T13:50:18;4.78;;;1.15;;
5416;SDS011;2731;50.754;12.990;2023-10-08T13:52:47;3.80;;;1.38;;
5416;SDS011;2731;50.754;12.990;2023-10-08T13:55:14;8.85;;;2.03;;
5416;SDS011;2731;50.754;12.990;2023-10-08T13:57:44;5.75;;;1.80;;
5416;SDS011;2731;50.754;12.990;2023-10-08T14:00:15;4.72;;;2.15;;
5416;SDS011;2731;50.754;12.990;2023-10-08T14:03:01;4.55;;;1.50;;
5416;SDS011;2731;50.754;12.990;2023-10-08T14:05:33;6.20;;;1.48;;
5416;SDS011;2731;50.754;12.990;2023-10-08T14:07:59;5.07;;;1.65;;
5416;SDS011;2731;50.754;12.990;2023-10-08T14:10:29;4.78;;;1.48;;
5416;SDS011;2731;50.754;12.990;2023-10-08T14:12:57;4.85;;;1.60;;
5416;SDS011;2731;50.754;12.990;2023-10-08T14:15:34;4.30;;;1.73;;
5416;SDS011;2731;50.754;12.990;2023-10-08T14:18:10;4.32;;;2.13;;
5416;SDS011;2731;50.754;12.990;2023-10-08T14:20:42;4.68;;;2.25;;
5416;SDS011;2731;50.754;12.990;2023-10-08T14:23:16;5.68;;;2.03;;
5416;SDS011;2731;50.754;12.990;2023-10-08T14:26:12;5.40;;;1.75;;
5416;SDS011;2731;50.754;12.990;2023-10-08T14:28:41;5.03;;;1.45;;
5416;SDS011;2731;50.754;12.990;2023-10-08T14:31:28;3.88;;;1.70;;
5416;SDS011;2731;50.754;12.990;2023-10-08T14:34:04;3.60;;;1.58;;
5416;SDS011;2731;50.754;12.990;2023-10-08T14:36:47;6.00;;;1.73;;
5416;SDS011;2731;50.754;12.990;2023-10-08T14:39:34;4.40;;;1.55;;
5416;SDS011;2731;50.754;12.990;2023-10-08T14:42:22;3.42;;;1.52;;
5416;SDS011;2731;50.754;12.990;2023-10-08T14:45:14;4.65;;;1.77;;
5416;SDS011;2731;50.754;12.990;2023-10-08T14:47:44;3.17;;;1.60;;
5416;SDS011;2731;50.754;12.990;2023-10-08T14:50:11;6.32;;;1.88;;
5416;SDS011;2731;50.754;12.990;2023-10-08T14:52:45;3.97;;;1.95;;
5416;SDS011;2731;50.754;12.990;2023-10-08T14:55:12;2.88;;;1.70;;
5416;SDS011;2731;50.754;12.990;2023-10-08T14:57:39;3.45;;;1.67;;
5416;SDS011;2731;50.754;12.990;2023-10-08T15:00:10;6.05;;;2.17;;
5416;SDS011;2731;50.754;12.990;2023-10-08T15:05:10;5.35;;;2.33;;
5416;SDS011;2731;50.754;12.990;2023-10-08T15:07:41;2.75;;;1.67;;
5416;SDS011;2731;50.754;12.990;2023-10-08T15:10:07;6.18;;;1.80;;
5416;SDS011;2731;50.754;12.990;2023-10-08T15:12:37;3.90;;;1.45;;
5416;SDS011;2731;50.754;12.990;2023-10-08T15:15:04;6.10;;;2.58;;
5416;SDS011;2731;50.754;12.990;2023-10-08T15:17:38;6.47;;;1.88;;
5416;SDS011;2731;50.754;12.990;2023-10-08T15:20:08;5.43;;;2.22;;
5416;SDS011;2731;50.754;12.990;2023-10-08T15:22:42;3.90;;;1.60;;
5416;SDS011;2731;50.754;12.990;2023-10-08T15:25:10;4.20;;;1.48;;
5416;SDS011;2731;50.754;12.990;2023-10-08T15:27:39;3.80;;;2.08;;
5416;SDS011;2731;50.754;12.990;2023-10-08T15:30:09;6.28;;;2.50;;
5416;SDS011;2731;50.754;12.990;2023-10-08T15:32:42;3.92;;;2.00;;
5416;SDS011;2731;50.754;12.990;2023-10-08T15:38:53;3.97;;;2.33;;
5416;SDS011;2731;50.754;12.990;2023-10-08T15:41:19;5.88;;;1.98;;
5416;SDS011;2731;50.754;12.990;2023-10-08T15:43:53;9.30;;;2.38;;
5416;SDS011;2731;50.754;12.990;2023-10-08T15:46:32;4.80;;;2.25;;
5416;SDS011;2731;50.754;12.990;2023-10-08T15:49:04;4.10;;;2.22;;
5416;SDS011;2731;50.754;12.990;2023-10-08T15:51:30;4.07;;;1.98;;
5416;SDS011;2731;50.754;12.990;2023-10-08T16:05:21;6.05;;;2.00;;
5416;SDS011;2731;50.754;12.990;2023-10-08T16:07:49;4.43;;;2.03;;
5416;SDS011;2731;50.754;12.990;2023-10-08T16:10:17;3.28;;;1.98;;
5416;SDS011;2731;50.754;12.990;2023-10-08T16:12:45;4.72;;;2.40;;
5416;SDS011;2731;50.754;12.990;2023-10-08T16:20:14;3.58;;;2.63;;
5416;SDS011;2731;50.754;12.990;2023-10-08T16:32:17;6.28;;;4.53;;
